sensor_id;sensor_type;location;lat;lon;timestamp;P1;durP1;ratioP1;P2;durP2;ratioP2
21030;SDS011;61072;47.808;7.636;2023-12-20T00:01:11;3.28;;;1.20;;
21030;SDS011;61072;47.808;7.636;2023-12-20T00:03:38;3.15;;;1.50;;
21030;SDS011;61072;47.808;7.636;2023-12-20T00:06:08;4.43;;;1.20;;
21030;SDS011;61072;47.808;7.636;2023-12-20T00:08:35;2.38;;;1.50;;
21030;SDS011;61072;47.808;7.636;2023-12-20T00:11:02;4.47;;;2.97;;
21030;SDS011;61072;47.808;7.636;2023-12-20T00:13:29;4.93;;;3.22;;
21030;SDS011;61072;47.808;7.636;2023-12-20T00:15:56;3.35;;;2.50;;
21030;SDS011;61072;47.808;7.636;2023-12-20T00:18:23;3.58;;;3.00;;
21030;SDS011;61072;47.808;7.636;2023-12-20T00:20:49;5.65;;;2.58;;
21030;SDS011;61072;47.808;7.636;2023-12-20T00:23:16;3.63;;;2.25;;
21030;SDS011;61072;47.808;7.636;2023-12-20T00:25:43;2.85;;;1.92;;
21030;SDS011;61072;47.808;7.636;2023-12-20T00:28:10;2.90;;;2.35;;
21030;SDS011;61072;47.808;7.636;2023-12-20T00:30:37;4.70;;;2.38;;
21030;SDS011;61072;47.808;7.636;2023-12-20T00:33:03;3.65;;;2.05;;
21030;SDS011;61072;47.808;7.636;2023-12-20T00:35:30;3.53;;;2.28;;
21030;SDS011;61072;47.808;7.636;2023-12-20T00:37:58;3.33;;;2.20;;
21030;SDS011;61072;47.808;7.636;2023-12-20T00:40:25;3.08;;;2.25;;
21030;SDS011;61072;47.808;7.636;2023-12-20T00:42:51;2.10;;;1.52;;
21030;SDS011;61072;47.808;7.636;2023-12-20T00:45:18;2.60;;;1.90;;
21030;SDS011;61072;47.808;7.636;2023-12-20T00:47:45;3.15;;;2.08;;
21030;SDS011;61072;47.808;7.636;2023-12-20T00:50:12;2.65;;;1.65;;
21030;SDS011;61072;47.808;7.636;2023-12-20T00:52:39;3.03;;;1.90;;
21030;SDS011;61072;47.808;7.636;2023-12-20T00:55:06;4.13;;;1.95;;
21030;SDS011;61072;47.808;7.636;2023-12-20T00:57:34;2.67;;;1.80;;
21030;SDS011;61072;47.808;7.636;2023-12-20T01:00:01;2.15;;;1.65;;
21030;SDS011;61072;47.808;7.636;2023-12-20T01:02:28;2.13;;;1.40;;
21030;SDS011;61072;47.808;7.636;2023-12-20T01:04:55;1.98;;;1.67;;
21030;SDS011;61072;47.808;7.636;2023-12-20T01:07:22;2.60;;;1.90;;
21030;SDS011;61072;47.808;7.636;2023-12-20T01:09:48;3.53;;;1.70;;
21030;SDS011;61072;47.808;7.636;2023-12-20T01:12:15;2.65;;;1.80;;
21030;SDS011;61072;47.808;7.636;2023-12-20T01:14:42;1.90;;;1.48;;
21030;SDS011;61072;47.808;7.636;2023-12-20T01:17:09;3.60;;;1.60;;
21030;SDS011;61072;47.808;7.636;2023-12-20T01:19:35;3.10;;;1.77;;
21030;SDS011;61072;47.808;7.636;2023-12-20T01:22:03;2.53;;;2.03;;
21030;SDS011;61072;47.808;7.636;2023-12-20T01:24:30;2.58;;;1.27;;
21030;SDS011;61072;47.808;7.636;2023-12-20T01:26:56;1.77;;;1.50;;
21030;SDS011;61072;47.808;7.636;2023-12-20T01:29:23;1.95;;;1.60;;
21030;SDS011;61072;47.808;7.636;2023-12-20T01:31:50;1.38;;;1.20;;
21030;SDS011;61072;47.808;7.636;2023-12-20T01:34:17;1.52;;;1.40;;
21030;SDS011;61072;47.808;7.636;2023-12-20T01:36:44;2.50;;;1.70;;
21030;SDS011;61072;47.808;7.636;2023-12-20T01:39:11;2.08;;;1.52;;
21030;SDS011;61072;47.808;7.636;2023-12-20T01:41:52;3.08;;;1.40;;
21030;SDS011;61072;47.808;7.636;2023-12-20T01:44:19;1.50;;;1.20;;
21030;SDS011;61072;47.808;7.636;2023-12-20T01:46:46;2.20;;;1.50;;
21030;SDS011;61072;47.808;7.636;2023-12-20T01:49:14;1.38;;;1.10;;
21030;SDS011;61072;47.808;7.636;2023-12-20T01:51:41;2.63;;;1.30;;
21030;SDS011;61072;47.808;7.636;2023-12-20T01:54:09;2.15;;;1.08;;
21030;SDS011;61072;47.808;7.636;2023-12-20T01:56:36;1.65;;;1.23;;
21030;SDS011;61072;47.808;7.636;2023-12-20T01:59:03;1.52;;;1.25;;
21030;SDS011;61072;47.808;7.636;2023-12-20T02:01:31;3.33;;;1.70;;
21030;SDS011;61072;47.808;7.636;2023-12-20T02:03:58;1.80;;;1.55;;
21030;SDS011;61072;47.808;7.636;2023-12-20T02:06:27;1.75;;;1.38;;
21030;SDS011;61072;47.808;7.636;2023-12-20T02:08:57;2.08;;;1.35;;
21030;SDS011;61072;47.808;7.636;2023-12-20T02:11:25;1.98;;;1.50;;
21030;SDS011;61072;47.808;7.636;2023-12-20T02:13:53;1.70;;;1.60;;
21030;SDS011;61072;47.808;7.636;2023-12-20T02:16:20;3.20;;;1.45;;
21030;SDS011;61072;47.808;7.636;2023-12-20T02:18:47;2.05;;;1.60;;
21030;SDS011;61072;47.808;7.636;2023-12-20T02:21:14;2.75;;;1.50;;
21030;SDS011;61072;47.808;7.636;2023-12-20T02:23:41;2.80;;;1.50;;
21030;SDS011;61072;47.808;7.636;2023-12-20T02:26:08;2.65;;;1.90;;
21030;SDS011;61072;47.808;7.636;2023-12-20T02:28:35;2.65;;;1.30;;
21030;SDS011;61072;47.808;7.636;2023-12-20T02:31:02;2.30;;;2.08;;
21030;SDS011;61072;47.808;7.636;2023-12-20T02:33:29;2.47;;;1.88;;
21030;SDS011;61072;47.808;7.636;2023-12-20T02:35:56;1.95;;;1.70;;
21030;SDS011;61072;47.808;7.636;2023-12-20T02:38:23;1.40;;;1.30;;
21030;SDS011;61072;47.808;7.636;2023-12-20T02:40:49;2.92;;;1.65;;
21030;SDS011;61072;47.808;7.636;2023-12-20T02:43:16;2.83;;;1.52;;
21030;SDS011;61072;47.808;7.636;2023-12-20T02:45:43;3.08;;;1.90;;
21030;SDS011;61072;47.808;7.636;2023-12-20T02:48:10;2.78;;;1.90;;
21030;SDS011;61072;47.808;7.636;2023-12-20T02:50:36;2.08;;;1.70;;
21030;SDS011;61072;47.808;7.636;2023-12-20T02:53:03;1.60;;;1.48;;
21030;SDS011;61072;47.808;7.636;2023-12-20T02:55:30;2.22;;;1.50;;
21030;SDS011;61072;47.808;7.636;2023-12-20T02:57:57;2.90;;;1.27;;
21030;SDS011;61072;47.808;7.636;2023-12-20T03:00:24;2.22;;;1.40;;
21030;SDS011;61072;47.808;7.636;2023-12-20T03:02:50;1.63;;;1.27;;
21030;SDS011;61072;47.808;7.636;2023-12-20T03:05:17;2.13;;;1.50;;
21030;SDS011;61072;47.808;7.636;2023-12-20T03:07:44;1.85;;;1.40;;
21030;SDS011;61072;47.808;7.636;2023-12-20T03:10:12;1.75;;;1.42;;
21030;SDS011;61072;47.808;7.636;2023-12-20T03:12:49;2.17;;;1.50;;
21030;SDS011;61072;47.808;7.636;2023-12-20T03:15:16;1.73;;;1.17;;
21030;SDS011;61072;47.808;7.636;2023-12-20T03:17:42;1.25;;;1.15;;
21030;SDS011;61072;47.808;7.636;2023-12-20T03:20:10;1.30;;;1.20;;
21030;SDS011;61072;47.808;7.636;2023-12-20T03:22:37;1.30;;;1.20;;
21030;SDS011;61072;47.808;7.636;2023-12-20T03:25:04;2.20;;;1.50;;
21030;SDS011;61072;47.808;7.636;2023-12-20T03:27:31;2.30;;;1.33;;
21030;SDS011;61072;47.808;7.636;2023-12-20T03:29:57;1.85;;;1.00;;
21030;SDS011;61072;47.808;7.636;2023-12-20T03:32:24;3.13;;;1.17;;
21030;SDS011;61072;47.808;7.636;2023-12-20T03:34:51;1.45;;;1.00;;
21030;SDS011;61072;47.808;7.636;2023-12-20T03:37:18;2.70;;;1.10;;
21030;SDS011;61072;47.808;7.636;2023-12-20T03:39:45;1.45;;;0.85;;
21030;SDS011;61072;47.808;7.636;2023-12-20T03:42:11;1.65;;;1.27;;
21030;SDS011;61072;47.808;7.636;2023-12-20T03:44:39;1.00;;;0.90;;
21030;SDS011;61072;47.808;7.636;2023-12-20T03:47:08;2.40;;;1.10;;
21030;SDS011;61072;47.808;7.636;2023-12-20T03:49:35;1.75;;;1.17;;
21030;SDS011;61072;47.808;7.636;2023-12-20T03:52:04;1.58;;;0.90;;
21030;SDS011;61072;47.808;7.636;2023-12-20T03:54:31;1.83;;;1.00;;
21030;SDS011;61072;47.808;7.636;2023-12-20T03:56:58;0.90;;;0.90;;
21030;SDS011;61072;47.808;7.636;2023-12-20T03:59:24;0.90;;;0.88;;
21030;SDS011;61072;47.808;7.636;2023-12-20T04:01:51;0.82;;;0.80;;
21030;SDS011;61072;47.808;7.636;2023-12-20T04:04:18;1.70;;;0.93;;
21030;SDS011;61072;47.808;7.636;2023-12-20T04:06:45;0.80;;;0.80;;
21030;SDS011;61072;47.808;7.636;2023-12-20T04:09:12;1.20;;;1.10;;
21030;SDS011;61072;47.808;7.636;2023-12-20T04:11:39;2.67;;;1.13;;
21030;SDS011;61072;47.808;7.636;2023-12-20T04:14:05;1.00;;;0.90;;
21030;SDS011;61072;47.808;7.636;2023-12-20T04:16:33;0.90;;;0.90;;
21030;SDS011;61072;47.808;7.636;2023-12-20T04:19:00;0.93;;;0.90;;
21030;SDS011;61072;47.808;7.636;2023-12-20T04:21:27;1.95;;;1.00;;
21030;SDS011;61072;47.808;7.636;2023-12-20T04:23:54;0.82;;;0.80;;
21030;SDS011;61072;47.808;7.636;2023-12-20T04:26:20;0.95;;;0.90;;
21030;SDS011;61072;47.808;7.636;2023-12-20T04:28:47;0.95;;;0.93;;
21030;SDS011;61072;47.808;7.636;2023-12-20T04:31:15;0.73;;;0.70;;
21030;SDS011;61072;47.808;7.636;2023-12-20T04:33:42;1.13;;;0.90;;
21030;SDS011;61072;47.808;7.636;2023-12-20T04:36:09;0.82;;;0.80;;
21030;SDS011;61072;47.808;7.636;2023-12-20T04:38:36;0.90;;;0.90;;
21030;SDS011;61072;47.808;7.636;2023-12-20T04:41:03;2.90;;;0.98;;
21030;SDS011;61072;47.808;7.636;2023-12-20T04:43:29;1.10;;;1.00;;
21030;SDS011;61072;47.808;7.636;2023-12-20T04:45:56;0.90;;;0.82;;
21030;SDS011;61072;47.808;7.636;2023-12-20T04:48:23;1.02;;;0.93;;
21030;SDS011;61072;47.808;7.636;2023-12-20T04:50:50;1.05;;;0.95;;
21030;SDS011;61072;47.808;7.636;2023-12-20T04:53:16;1.27;;;1.15;;
21030;SDS011;61072;47.808;7.636;2023-12-20T04:55:43;1.27;;;1.10;;
21030;SDS011;61072;47.808;7.636;2023-12-20T04:58:10;1.00;;;1.00;;
21030;SDS011;61072;47.808;7.636;2023-12-20T05:00:36;1.05;;;0.95;;
21030;SDS011;61072;47.808;7.636;2023-12-20T05:03:03;1.77;;;1.30;;
21030;SDS011;61072;47.808;7.636;2023-12-20T05:05:30;1.20;;;1.10;;
21030;SDS011;61072;47.808;7.636;2023-12-20T05:07:58;1.10;;;1.00;;
21030;SDS011;61072;47.808;7.636;2023-12-20T05:10:25;1.17;;;1.08;;
21030;SDS011;61072;47.808;7.636;2023-12-20T05:12:53;0.88;;;0.85;;
21030;SDS011;61072;47.808;7.636;2023-12-20T05:15:20;1.25;;;1.00;;
21030;SDS011;61072;47.808;7.636;2023-12-20T05:17:46;1.73;;;1.00;;
21030;SDS011;61072;47.808;7.636;2023-12-20T05:20:14;1.50;;;1.08;;
21030;SDS011;61072;47.808;7.636;2023-12-20T05:22:41;2.78;;;1.20;;
21030;SDS011;61072;47.808;7.636;2023-12-20T05:25:07;1.70;;;0.77;;
21030;SDS011;61072;47.808;7.636;2023-12-20T05:27:34;1.60;;;1.20;;
21030;SDS011;61072;47.808;7.636;2023-12-20T05:30:01;1.25;;;1.15;;
21030;SDS011;61072;47.808;7.636;2023-12-20T05:32:28;1.30;;;0.95;;
21030;SDS011;61072;47.808;7.636;2023-12-20T05:34:55;2.45;;;0.88;;
21030;SDS011;61072;47.808;7.636;2023-12-20T05:37:21;1.02;;;0.80;;
21030;SDS011;61072;47.808;7.636;2023-12-20T05:39:48;2.25;;;0.90;;
21030;SDS011;61072;47.808;7.636;2023-12-20T05:42:15;1.05;;;0.98;;
21030;SDS011;61072;47.808;7.636;2023-12-20T05:44:42;1.40;;;1.20;;
21030;SDS011;61072;47.808;7.636;2023-12-20T05:47:09;1.35;;;1.10;;
21030;SDS011;61072;47.808;7.636;2023-12-20T05:49:35;3.45;;;1.00;;
21030;SDS011;61072;47.808;7.636;2023-12-20T05:52:02;0.70;;;0.70;;
21030;SDS011;61072;47.808;7.636;2023-12-20T05:54:29;2.30;;;0.80;;
21030;SDS011;61072;47.808;7.636;2023-12-20T05:56:56;0.77;;;0.70;;
21030;SDS011;61072;47.808;7.636;2023-12-20T05:59:23;0.65;;;0.65;;
21030;SDS011;61072;47.808;7.636;2023-12-20T06:01:50;1.08;;;0.95;;
21030;SDS011;61072;47.808;7.636;2023-12-20T06:04:16;1.02;;;0.80;;
21030;SDS011;61072;47.808;7.636;2023-12-20T06:06:45;0.98;;;0.95;;
21030;SDS011;61072;47.808;7.636;2023-12-20T06:09:12;1.17;;;0.90;;
21030;SDS011;61072;47.808;7.636;2023-12-20T06:11:38;0.98;;;0.80;;
21030;SDS011;61072;47.808;7.636;2023-12-20T06:14:05;1.08;;;0.80;;
21030;SDS011;61072;47.808;7.636;2023-12-20T06:16:32;1.00;;;0.90;;
21030;SDS011;61072;47.808;7.636;2023-12-20T06:18:58;1.58;;;1.10;;
21030;SDS011;61072;47.808;7.636;2023-12-20T06:21:25;1.77;;;1.13;;
21030;SDS011;61072;47.808;7.636;2023-12-20T06:23:52;1.13;;;1.00;;
21030;SDS011;61072;47.808;7.636;2023-12-20T06:26:19;1.02;;;0.93;;
21030;SDS011;61072;47.808;7.636;2023-12-20T06:28:45;2.72;;;1.15;;
21030;SDS011;61072;47.808;7.636;2023-12-20T06:31:12;1.33;;;1.20;;
21030;SDS011;61072;47.808;7.636;2023-12-20T06:33:39;2.15;;;1.95;;
21030;SDS011;61072;47.808;7.636;2023-12-20T06:36:07;1.33;;;1.23;;
21030;SDS011;61072;47.808;7.636;2023-12-20T06:38:36;0.52;;;0.50;;
21030;SDS011;61072;47.808;7.636;2023-12-20T06:41:03;0.75;;;0.75;;
21030;SDS011;61072;47.808;7.636;2023-12-20T06:43:30;1.20;;;0.93;;
21030;SDS011;61072;47.808;7.636;2023-12-20T06:46:14;1.35;;;1.00;;
21030;SDS011;61072;47.808;7.636;2023-12-20T06:48:41;5.43;;;1.77;;
21030;SDS011;61072;47.808;7.636;2023-12-20T06:51:10;1.52;;;1.27;;
21030;SDS011;61072;47.808;7.636;2023-12-20T06:53:43;1.88;;;1.35;;
21030;SDS011;61072;47.808;7.636;2023-12-20T06:56:10;1.17;;;0.80;;
21030;SDS011;61072;47.808;7.636;2023-12-20T06:58:43;1.48;;;0.80;;
21030;SDS011;61072;47.808;7.636;2023-12-20T07:01:12;1.00;;;0.90;;
21030;SDS011;61072;47.808;7.636;2023-12-20T07:03:40;0.98;;;0.88;;
21030;SDS011;61072;47.808;7.636;2023-12-20T07:06:07;1.05;;;0.75;;
21030;SDS011;61072;47.808;7.636;2023-12-20T07:08:34;1.75;;;1.02;;
21030;SDS011;61072;47.808;7.636;2023-12-20T07:11:01;1.15;;;0.80;;
21030;SDS011;61072;47.808;7.636;2023-12-20T07:13:28;1.10;;;0.90;;
21030;SDS011;61072;47.808;7.636;2023-12-20T07:15:56;0.90;;;0.70;;
21030;SDS011;61072;47.808;7.636;2023-12-20T07:18:23;0.80;;;0.80;;
21030;SDS011;61072;47.808;7.636;2023-12-20T07:20:50;1.13;;;1.02;;
21030;SDS011;61072;47.808;7.636;2023-12-20T07:23:16;0.70;;;0.70;;
21030;SDS011;61072;47.808;7.636;2023-12-20T07:25:43;1.00;;;0.90;;
21030;SDS011;61072;47.808;7.636;2023-12-20T07:28:10;0.75;;;0.75;;
21030;SDS011;61072;47.808;7.636;2023-12-20T07:30:36;1.10;;;1.00;;
21030;SDS011;61072;47.808;7.636;2023-12-20T07:33:03;1.13;;;1.00;;
21030;SDS011;61072;47.808;7.636;2023-12-20T07:35:31;0.80;;;0.80;;
21030;SDS011;61072;47.808;7.636;2023-12-20T07:37:57;1.20;;;1.00;;
21030;SDS011;61072;47.808;7.636;2023-12-20T07:40:24;1.33;;;0.80;;
21030;SDS011;61072;47.808;7.636;2023-12-20T07:42:51;3.72;;;2.45;;
21030;SDS011;61072;47.808;7.636;2023-12-20T07:45:18;4.70;;;3.28;;
21030;SDS011;61072;47.808;7.636;2023-12-20T07:47:45;3.22;;;2.15;;
21030;SDS011;61072;47.808;7.636;2023-12-20T07:50:12;3.20;;;2.20;;
21030;SDS011;61072;47.808;7.636;2023-12-20T07:52:39;3.65;;;2.33;;
21030;SDS011;61072;47.808;7.636;2023-12-20T07:55:05;1.55;;;1.10;;
21030;SDS011;61072;47.808;7.636;2023-12-20T07:57:33;2.03;;;1.38;;
21030;SDS011;61072;47.808;7.636;2023-12-20T07:59:59;4.10;;;1.50;;
21030;SDS011;61072;47.808;7.636;2023-12-20T08:02:26;1.15;;;1.05;;
21030;SDS011;61072;47.808;7.636;2023-12-20T08:04:53;1.10;;;1.00;;
21030;SDS011;61072;47.808;7.636;2023-12-20T08:07:20;1.02;;;0.82;;
21030;SDS011;61072;47.808;7.636;2023-12-20T08:09:46;1.08;;;0.98;;
21030;SDS011;61072;47.808;7.636;2023-12-20T08:12:13;1.45;;;1.00;;
21030;SDS011;61072;47.808;7.636;2023-12-20T08:14:41;2.10;;;0.82;;
21030;SDS011;61072;47.808;7.636;2023-12-20T08:17:08;1.60;;;1.10;;
21030;SDS011;61072;47.808;7.636;2023-12-20T08:19:35;1.10;;;1.00;;
21030;SDS011;61072;47.808;7.636;2023-12-20T08:22:01;1.10;;;1.00;;
21030;SDS011;61072;47.808;7.636;2023-12-20T08:24:29;1.33;;;1.10;;
21030;SDS011;61072;47.808;7.636;2023-12-20T08:26:56;1.67;;;1.42;;
21030;SDS011;61072;47.808;7.636;2023-12-20T08:29:22;0.90;;;0.90;;
21030;SDS011;61072;47.808;7.636;2023-12-20T08:31:52;1.10;;;1.00;;
21030;SDS011;61072;47.808;7.636;2023-12-20T08:34:20;1.02;;;1.00;;
21030;SDS011;61072;47.808;7.636;2023-12-20T08:36:47;1.80;;;1.40;;
21030;SDS011;61072;47.808;7.636;2023-12-20T08:39:14;1.60;;;1.15;;
21030;SDS011;61072;47.808;7.636;2023-12-20T08:41:41;2.83;;;1.30;;
21030;SDS011;61072;47.808;7.636;2023-12-20T08:44:08;1.70;;;1.50;;
21030;SDS011;61072;47.808;7.636;2023-12-20T08:46:35;1.65;;;1.40;;
21030;SDS011;61072;47.808;7.636;2023-12-20T08:49:02;1.90;;;1.58;;
21030;SDS011;61072;47.808;7.636;2023-12-20T08:51:29;2.13;;;1.75;;
21030;SDS011;61072;47.808;7.636;2023-12-20T08:53:56;2.83;;;1.80;;
21030;SDS011;61072;47.808;7.636;2023-12-20T08:56:22;2.45;;;1.90;;
21030;SDS011;61072;47.808;7.636;2023-12-20T08:58:49;1.85;;;1.65;;
21030;SDS011;61072;47.808;7.636;2023-12-20T09:01:16;2.10;;;1.70;;
21030;SDS011;61072;47.808;7.636;2023-12-20T09:03:43;3.38;;;2.30;;
21030;SDS011;61072;47.808;7.636;2023-12-20T09:06:10;2.67;;;1.80;;
21030;SDS011;61072;47.808;7.636;2023-12-20T09:08:36;4.13;;;2.40;;
21030;SDS011;61072;47.808;7.636;2023-12-20T09:11:03;3.38;;;2.33;;
21030;SDS011;61072;47.808;7.636;2023-12-20T09:13:30;4.28;;;2.65;;
21030;SDS011;61072;47.808;7.636;2023-12-20T09:15:58;3.50;;;2.08;;
21030;SDS011;61072;47.808;7.636;2023-12-20T09:18:25;4.13;;;2.35;;
21030;SDS011;61072;47.808;7.636;2023-12-20T09:20:52;5.45;;;3.13;;
21030;SDS011;61072;47.808;7.636;2023-12-20T09:23:18;3.88;;;2.60;;
21030;SDS011;61072;47.808;7.636;2023-12-20T09:25:45;3.58;;;2.70;;
21030;SDS011;61072;47.808;7.636;2023-12-20T09:28:12;9.13;;;2.53;;
21030;SDS011;61072;47.808;7.636;2023-12-20T09:30:39;2.70;;;2.15;;
21030;SDS011;61072;47.808;7.636;2023-12-20T09:33:06;3.03;;;2.30;;
21030;SDS011;61072;47.808;7.636;2023-12-20T09:35:34;2.60;;;1.83;;
21030;SDS011;61072;47.808;7.636;2023-12-20T09:38:01;3.22;;;2.08;;
21030;SDS011;61072;47.808;7.636;2023-12-20T09:40:28;2.40;;;2.03;;
21030;SDS011;61072;47.808;7.636;2023-12-20T09:42:58;3.88;;;2.78;;
21030;SDS011;61072;47.808;7.636;2023-12-20T09:45:30;2.88;;;2.30;;
21030;SDS011;61072;47.808;7.636;2023-12-20T09:47:58;3.35;;;2.83;;
21030;SDS011;61072;47.808;7.636;2023-12-20T09:50:26;3.47;;;2.50;;
21030;SDS011;61072;47.808;7.636;2023-12-20T09:52:53;3.88;;;2.60;;
21030;SDS011;61072;47.808;7.636;2023-12-20T09:55:24;4.18;;;2.20;;
21030;SDS011;61072;47.808;7.636;2023-12-20T09:57:52;2.75;;;2.33;;
21030;SDS011;61072;47.808;7.636;2023-12-20T10:00:18;3.15;;;2.08;;
21030;SDS011;61072;47.808;7.636;2023-12-20T10:02:49;3.45;;;2.30;;
21030;SDS011;61072;47.808;7.636;2023-12-20T10:05:20;1.92;;;1.52;;
21030;SDS011;61072;47.808;7.636;2023-12-20T10:07:57;3.45;;;1.60;;
21030;SDS011;61072;47.808;7.636;2023-12-20T10:10:26;2.80;;;2.28;;
21030;SDS011;61072;47.808;7.636;2023-12-20T10:13:08;2.83;;;2.42;;
21030;SDS011;61072;47.808;7.636;2023-12-20T10:15:36;2.28;;;1.80;;
21030;SDS011;61072;47.808;7.636;2023-12-20T10:18:04;3.08;;;2.38;;
21030;SDS011;61072;47.808;7.636;2023-12-20T10:20:31;2.63;;;1.95;;
21030;SDS011;61072;47.808;7.636;2023-12-20T10:22:59;2.85;;;2.13;;
21030;SDS011;61072;47.808;7.636;2023-12-20T10:25:27;3.30;;;2.08;;
21030;SDS011;61072;47.808;7.636;2023-12-20T10:28:16;3.38;;;2.25;;
21030;SDS011;61072;47.808;7.636;2023-12-20T10:30:49;2.17;;;1.90;;
21030;SDS011;61072;47.808;7.636;2023-12-20T10:33:26;3.40;;;2.30;;
21030;SDS011;61072;47.808;7.636;2023-12-20T10:35:53;4.70;;;2.08;;
21030;SDS011;61072;47.808;7.636;2023-12-20T10:38:21;3.45;;;2.42;;
21030;SDS011;61072;47.808;7.636;2023-12-20T10:40:48;3.78;;;2.70;;
21030;SDS011;61072;47.808;7.636;2023-12-20T10:43:19;3.60;;;2.75;;
21030;SDS011;61072;47.808;7.636;2023-12-20T10:45:46;2.90;;;2.33;;
21030;SDS011;61072;47.808;7.636;2023-12-20T10:48:13;4.32;;;2.60;;
21030;SDS011;61072;47.808;7.636;2023-12-20T10:50:41;3.35;;;2.20;;
21030;SDS011;61072;47.808;7.636;2023-12-20T10:53:07;2.10;;;1.90;;
21030;SDS011;61072;47.808;7.636;2023-12-20T10:55:34;3.03;;;2.00;;
21030;SDS011;61072;47.808;7.636;2023-12-20T10:58:02;3.20;;;2.22;;
21030;SDS011;61072;47.808;7.636;2023-12-20T11:00:39;3.78;;;2.05;;
21030;SDS011;61072;47.808;7.636;2023-12-20T11:03:11;4.45;;;2.92;;
21030;SDS011;61072;47.808;7.636;2023-12-20T11:08:19;2.45;;;2.00;;
21030;SDS011;61072;47.808;7.636;2023-12-20T11:13:54;3.40;;;2.25;;
21030;SDS011;61072;47.808;7.636;2023-12-20T11:16:25;2.92;;;2.13;;
21030;SDS011;61072;47.808;7.636;2023-12-20T11:19:06;2.75;;;2.17;;
21030;SDS011;61072;47.808;7.636;2023-12-20T11:21:33;6.70;;;2.20;;
21030;SDS011;61072;47.808;7.636;2023-12-20T11:24:00;2.80;;;2.33;;
21030;SDS011;61072;47.808;7.636;2023-12-20T11:26:29;3.25;;;2.50;;
21030;SDS011;61072;47.808;7.636;2023-12-20T11:32:27;3.65;;;2.20;;
21030;SDS011;61072;47.808;7.636;2023-12-20T11:34:53;3.47;;;2.55;;
21030;SDS011;61072;47.808;7.636;2023-12-20T11:37:40;5.32;;;2.47;;
21030;SDS011;61072;47.808;7.636;2023-12-20T11:40:14;3.80;;;1.98;;
21030;SDS011;61072;47.808;7.636;2023-12-20T11:42:43;3.28;;;2.20;;
21030;SDS011;61072;47.808;7.636;2023-12-20T11:45:13;3.13;;;2.30;;
21030;SDS011;61072;47.808;7.636;2023-12-20T11:47:45;5.40;;;2.67;;
21030;SDS011;61072;47.808;7.636;2023-12-20T11:50:14;3.38;;;2.05;;
21030;SDS011;61072;47.808;7.636;2023-12-20T11:52:41;3.75;;;2.08;;
21030;SDS011;61072;47.808;7.636;2023-12-20T11:55:08;4.88;;;1.90;;
21030;SDS011;61072;47.808;7.636;2023-12-20T11:57:35;5.85;;;2.40;;
21030;SDS011;61072;47.808;7.636;2023-12-20T12:00:03;5.22;;;2.00;;
21030;SDS011;61072;47.808;7.636;2023-12-20T12:02:30;5.63;;;2.53;;
21030;SDS011;61072;47.808;7.636;2023-12-20T12:04:57;5.10;;;1.83;;
21030;SDS011;61072;47.808;7.636;2023-12-20T12:07:25;4.10;;;2.53;;
21030;SDS011;61072;47.808;7.636;2023-12-20T12:09:52;3.50;;;2.33;;
21030;SDS011;61072;47.808;7.636;2023-12-20T12:12:19;10.70;;;2.65;;
21030;SDS011;61072;47.808;7.636;2023-12-20T12:14:46;3.88;;;2.10;;
21030;SDS011;61072;47.808;7.636;2023-12-20T12:17:14;10.10;;;2.53;;
21030;SDS011;61072;47.808;7.636;2023-12-20T12:19:41;6.28;;;2.00;;
21030;SDS011;61072;47.808;7.636;2023-12-20T12:22:10;3.92;;;2.47;;
21030;SDS011;61072;47.808;7.636;2023-12-20T12:24:43;5.45;;;2.00;;
21030;SDS011;61072;47.808;7.636;2023-12-20T12:27:11;8.82;;;3.50;;
21030;SDS011;61072;47.808;7.636;2023-12-20T12:29:39;4.93;;;2.83;;
21030;SDS011;61072;47.808;7.636;2023-12-20T12:32:07;11.13;;;3.05;;
21030;SDS011;61072;47.808;7.636;2023-12-20T12:34:35;5.57;;;2.72;;
21030;SDS011;61072;47.808;7.636;2023-12-20T12:37:05;7.00;;;3.03;;
21030;SDS011;61072;47.808;7.636;2023-12-20T12:42:00;5.80;;;2.65;;
21030;SDS011;61072;47.808;7.636;2023-12-20T12:44:26;7.20;;;2.80;;
21030;SDS011;61072;47.808;7.636;2023-12-20T12:46:53;10.55;;;3.42;;
21030;SDS011;61072;47.808;7.636;2023-12-20T12:49:20;6.68;;;2.38;;
21030;SDS011;61072;47.808;7.636;2023-12-20T12:51:51;8.40;;;2.65;;
21030;SDS011;61072;47.808;7.636;2023-12-20T12:54:18;3.97;;;2.78;;
21030;SDS011;61072;47.808;7.636;2023-12-20T12:56:44;7.28;;;2.65;;
21030;SDS011;61072;47.808;7.636;2023-12-20T12:59:13;4.32;;;2.90;;
21030;SDS011;61072;47.808;7.636;2023-12-20T13:01:40;11.30;;;3.17;;
21030;SDS011;61072;47.808;7.636;2023-12-20T13:04:07;4.85;;;2.67;;
21030;SDS011;61072;47.808;7.636;2023-12-20T13:09:04;8.02;;;2.75;;
21030;SDS011;61072;47.808;7.636;2023-12-20T13:11:31;9.55;;;3.33;;
21030;SDS011;61072;47.808;7.636;2023-12-20T13:14:01;4.72;;;2.53;;
21030;SDS011;61072;47.808;7.636;2023-12-20T13:16:27;9.80;;;4.72;;
21030;SDS011;61072;47.808;7.636;2023-12-20T13:18:54;12.23;;;5.45;;
21030;SDS011;61072;47.808;7.636;2023-12-20T13:21:22;7.15;;;2.42;;
21030;SDS011;61072;47.808;7.636;2023-12-20T13:23:49;3.20;;;1.85;;
21030;SDS011;61072;47.808;7.636;2023-12-20T13:26:15;7.70;;;2.72;;
21030;SDS011;61072;47.808;7.636;2023-12-20T13:28:42;4.32;;;2.88;;
21030;SDS011;61072;47.808;7.636;2023-12-20T13:31:09;3.38;;;2.55;;
21030;SDS011;61072;47.808;7.636;2023-12-20T13:33:36;5.40;;;3.13;;
21030;SDS011;61072;47.808;7.636;2023-12-20T13:36:03;9.73;;;3.40;;
21030;SDS011;61072;47.808;7.636;2023-12-20T13:38:33;7.80;;;2.88;;
21030;SDS011;61072;47.808;7.636;2023-12-20T13:41:00;4.88;;;2.17;;
21030;SDS011;61072;47.808;7.636;2023-12-20T13:43:26;5.10;;;2.22;;
21030;SDS011;61072;47.808;7.636;2023-12-20T13:45:53;5.78;;;1.80;;
21030;SDS011;61072;47.808;7.636;2023-12-20T13:48:20;5.63;;;2.80;;
21030;SDS011;61072;47.808;7.636;2023-12-20T13:50:47;6.65;;;2.67;;
21030;SDS011;61072;47.808;7.636;2023-12-20T13:53:14;8.18;;;2.20;;
21030;SDS011;61072;47.808;7.636;2023-12-20T13:55:40;10.60;;;2.38;;
21030;SDS011;61072;47.808;7.636;2023-12-20T13:58:07;5.78;;;1.75;;
21030;SDS011;61072;47.808;7.636;2023-12-20T14:00:36;8.85;;;2.50;;
21030;SDS011;61072;47.808;7.636;2023-12-20T14:03:04;8.45;;;2.97;;
21030;SDS011;61072;47.808;7.636;2023-12-20T14:05:30;8.98;;;2.22;;
21030;SDS011;61072;47.808;7.636;2023-12-20T14:07:58;8.35;;;2.05;;
21030;SDS011;61072;47.808;7.636;2023-12-20T14:10:25;5.53;;;1.55;;
21030;SDS011;61072;47.808;7.636;2023-12-20T14:12:55;6.95;;;1.90;;
21030;SDS011;61072;47.808;7.636;2023-12-20T14:15:22;7.45;;;2.00;;
21030;SDS011;61072;47.808;7.636;2023-12-20T14:17:51;10.30;;;2.40;;
21030;SDS011;61072;47.808;7.636;2023-12-20T14:20:18;8.10;;;1.60;;
21030;SDS011;61072;47.808;7.636;2023-12-20T14:22:45;7.07;;;1.95;;
21030;SDS011;61072;47.808;7.636;2023-12-20T14:25:13;3.90;;;1.33;;
21030;SDS011;61072;47.808;7.636;2023-12-20T14:27:41;3.65;;;1.70;;
21030;SDS011;61072;47.808;7.636;2023-12-20T14:32:38;7.38;;;1.58;;
21030;SDS011;61072;47.808;7.636;2023-12-20T14:35:08;7.18;;;2.63;;
21030;SDS011;61072;47.808;7.636;2023-12-20T14:37:36;5.22;;;1.40;;
21030;SDS011;61072;47.808;7.636;2023-12-20T14:40:08;7.00;;;1.77;;
21030;SDS011;61072;47.808;7.636;2023-12-20T14:42:41;5.78;;;1.77;;
21030;SDS011;61072;47.808;7.636;2023-12-20T14:45:09;3.00;;;1.63;;
21030;SDS011;61072;47.808;7.636;2023-12-20T14:47:36;7.88;;;1.98;;
21030;SDS011;61072;47.808;7.636;2023-12-20T14:50:03;7.40;;;2.22;;
21030;SDS011;61072;47.808;7.636;2023-12-20T14:52:32;5.03;;;1.33;;
21030;SDS011;61072;47.808;7.636;2023-12-20T14:55:00;5.53;;;2.05;;
21030;SDS011;61072;47.808;7.636;2023-12-20T14:57:29;4.35;;;1.60;;
21030;SDS011;61072;47.808;7.636;2023-12-20T14:59:56;6.80;;;1.90;;
21030;SDS011;61072;47.808;7.636;2023-12-20T15:02:23;6.30;;;1.65;;
21030;SDS011;61072;47.808;7.636;2023-12-20T15:04:49;7.70;;;2.10;;
21030;SDS011;61072;47.808;7.636;2023-12-20T15:07:17;7.22;;;1.80;;